sensor_id;sensor_type;location;lat;lon;timestamp;P1;durP1;ratioP1;P2;durP2;ratioP2
25980;SDS011;13772;52.996;9.124;2023-08-24T05:14:09;9.23;;;7.03;;
25980;SDS011;13772;52.996;9.124;2023-08-24T05:16:34;8.68;;;7.00;;
25980;SDS011;13772;52.996;9.124;2023-08-24T05:18:59;10.68;;;7.53;;
25980;SDS011;13772;52.996;9.124;2023-08-24T05:21:24;11.65;;;8.60;;
25980;SDS011;13772;52.996;9.124;2023-08-24T05:23:50;11.38;;;8.57;;
25980;SDS011;13772;52.996;9.124;2023-08-24T05:26:15;11.52;;;9.05;;
25980;SDS011;13772;52.996;9.124;2023-08-24T05:28:47;11.27;;;9.60;;
25980;SDS011;13772;52.996;9.124;2023-08-24T05:31:12;13.35;;;10.13;;
25980;SDS011;13772;52.996;9.124;2023-08-24T05:33:37;14.75;;;9.85;;
25980;SDS011;13772;52.996;9.124;2023-08-24T05:36:03;13.93;;;10.30;;
25980;SDS011;13772;52.996;9.124;2023-08-24T05:38:28;19.98;;;11.75;;
25980;SDS011;13772;52.996;9.124;2023-08-24T05:40:53;19.13;;;11.77;;
25980;SDS011;13772;52.996;9.124;2023-08-24T05:43:19;14.88;;;11.73;;
25980;SDS011;13772;52.996;9.124;2023-08-24T05:45:45;14.65;;;11.50;;
25980;SDS011;13772;52.996;9.124;2023-08-24T05:48:11;14.52;;;12.68;;
25980;SDS011;13772;52.996;9.124;2023-08-24T05:50:37;18.95;;;14.18;;
25980;SDS011;13772;52.996;9.124;2023-08-24T05:53:03;19.42;;;14.25;;
25980;SDS011;13772;52.996;9.124;2023-08-24T05:55:28;19.30;;;14.80;;
25980;SDS011;13772;52.996;9.124;2023-08-24T05:57:53;21.45;;;13.35;;
25980;SDS011;13772;52.996;9.124;2023-08-24T06:00:18;17.13;;;13.13;;
25980;SDS011;13772;52.996;9.124;2023-08-24T06:02:44;22.73;;;13.68;;
25980;SDS011;13772;52.996;9.124;2023-08-24T06:05:09;19.77;;;12.90;;
25980;SDS011;13772;52.996;9.124;2023-08-24T06:07:36;18.73;;;13.50;;
25980;SDS011;13772;52.996;9.124;2023-08-24T06:10:01;18.30;;;13.43;;
25980;SDS011;13772;52.996;9.124;2023-08-24T06:12:26;17.33;;;13.38;;
25980;SDS011;13772;52.996;9.124;2023-08-24T06:14:52;17.58;;;13.43;;
25980;SDS011;13772;52.996;9.124;2023-08-24T06:17:17;17.88;;;13.63;;
25980;SDS011;13772;52.996;9.124;2023-08-24T06:19:42;19.38;;;13.00;;
25980;SDS011;13772;52.996;9.124;2023-08-24T06:22:08;18.60;;;12.98;;
25980;SDS011;13772;52.996;9.124;2023-08-24T06:24:33;15.82;;;12.27;;
25980;SDS011;13772;52.996;9.124;2023-08-24T06:26:58;15.73;;;11.98;;
25980;SDS011;13772;52.996;9.124;2023-08-24T06:29:23;20.63;;;12.68;;
25980;SDS011;13772;52.996;9.124;2023-08-24T06:31:49;14.75;;;11.20;;
25980;SDS011;13772;52.996;9.124;2023-08-24T06:34:14;17.58;;;11.10;;
25980;SDS011;13772;52.996;9.124;2023-08-24T06:36:39;18.35;;;11.68;;
25980;SDS011;13772;52.996;9.124;2023-08-24T06:39:04;16.30;;;10.38;;
25980;SDS011;13772;52.996;9.124;2023-08-24T06:41:33;16.77;;;10.65;;
25980;SDS011;13772;52.996;9.124;2023-08-24T06:44:03;14.80;;;10.50;;
25980;SDS011;13772;52.996;9.124;2023-08-24T06:46:29;17.85;;;10.23;;
25980;SDS011;13772;52.996;9.124;2023-08-24T06:48:54;20.15;;;10.18;;
25980;SDS011;13772;52.996;9.124;2023-08-24T06:51:19;16.92;;;10.55;;
25980;SDS011;13772;52.996;9.124;2023-08-24T06:53:44;17.73;;;9.98;;
25980;SDS011;13772;52.996;9.124;2023-08-24T06:56:12;17.20;;;9.15;;
25980;SDS011;13772;52.996;9.124;2023-08-24T06:58:39;14.77;;;9.38;;
25980;SDS011;13772;52.996;9.124;2023-08-24T07:01:04;14.75;;;9.00;;
25980;SDS011;13772;52.996;9.124;2023-08-24T07:03:31;14.88;;;8.20;;
25980;SDS011;13772;52.996;9.124;2023-08-24T07:05:58;14.57;;;7.97;;
25980;SDS011;13772;52.996;9.124;2023-08-24T07:08:23;12.68;;;8.05;;
25980;SDS011;13772;52.996;9.124;2023-08-24T07:10:48;12.18;;;8.07;;
25980;SDS011;13772;52.996;9.124;2023-08-24T07:13:13;12.52;;;7.97;;
25980;SDS011;13772;52.996;9.124;2023-08-24T07:15:39;12.45;;;6.80;;
25980;SDS011;13772;52.996;9.124;2023-08-24T07:18:04;13.00;;;8.10;;
25980;SDS011;13772;52.996;9.124;2023-08-24T07:20:32;13.13;;;8.23;;
25980;SDS011;13772;52.996;9.124;2023-08-24T07:22:57;14.65;;;8.20;;
25980;SDS011;13772;52.996;9.124;2023-08-24T07:25:22;12.55;;;7.65;;
25980;SDS011;13772;52.996;9.124;2023-08-24T07:27:48;11.05;;;7.88;;
25980;SDS011;13772;52.996;9.124;2023-08-24T07:30:13;14.00;;;9.50;;
25980;SDS011;13772;52.996;9.124;2023-08-24T07:32:38;12.73;;;7.95;;
25980;SDS011;13772;52.996;9.124;2023-08-24T07:35:04;13.32;;;8.57;;
25980;SDS011;13772;52.996;9.124;2023-08-24T07:37:31;16.70;;;11.90;;
25980;SDS011;13772;52.996;9.124;2023-08-24T07:39:56;14.15;;;9.35;;
25980;SDS011;13772;52.996;9.124;2023-08-24T07:42:21;12.50;;;8.32;;
25980;SDS011;13772;52.996;9.124;2023-08-24T07:44:47;14.88;;;9.75;;
25980;SDS011;13772;52.996;9.124;2023-08-24T07:47:12;18.58;;;9.45;;
25980;SDS011;13772;52.996;9.124;2023-08-24T07:49:37;14.48;;;9.02;;
25980;SDS011;13772;52.996;9.124;2023-08-24T07:52:08;15.68;;;8.25;;
25980;SDS011;13772;52.996;9.124;2023-08-24T07:54:33;11.02;;;7.95;;
25980;SDS011;13772;52.996;9.124;2023-08-24T07:56:59;10.98;;;7.50;;
25980;SDS011;13772;52.996;9.124;2023-08-24T07:59:24;10.95;;;7.95;;
25980;SDS011;13772;52.996;9.124;2023-08-24T08:01:49;8.85;;;5.97;;
25980;SDS011;13772;52.996;9.124;2023-08-24T08:04:15;8.40;;;5.68;;
25980;SDS011;13772;52.996;9.124;2023-08-24T08:06:40;8.68;;;5.20;;
25980;SDS011;13772;52.996;9.124;2023-08-24T08:09:05;14.25;;;5.05;;
25980;SDS011;13772;52.996;9.124;2023-08-24T08:11:31;12.18;;;4.43;;
25980;SDS011;13772;52.996;9.124;2023-08-24T08:13:56;9.60;;;4.75;;
25980;SDS011;13772;52.996;9.124;2023-08-24T08:16:21;8.68;;;4.25;;
25980;SDS011;13772;52.996;9.124;2023-08-24T08:18:46;8.02;;;4.60;;
25980;SDS011;13772;52.996;9.124;2023-08-24T08:21:14;10.50;;;4.38;;
25980;SDS011;13772;52.996;9.124;2023-08-24T08:23:40;8.50;;;4.07;;
25980;SDS011;13772;52.996;9.124;2023-08-24T08:26:05;7.13;;;4.20;;
25980;SDS011;13772;52.996;9.124;2023-08-24T08:28:31;9.57;;;4.15;;
25980;SDS011;13772;52.996;9.124;2023-08-24T08:30:58;12.70;;;4.13;;
25980;SDS011;13772;52.996;9.124;2023-08-24T08:33:23;10.23;;;4.93;;
25980;SDS011;13772;52.996;9.124;2023-08-24T08:35:49;7.22;;;3.95;;
25980;SDS011;13772;52.996;9.124;2023-08-24T08:38:14;7.72;;;3.83;;
25980;SDS011;13772;52.996;9.124;2023-08-24T08:40:39;6.03;;;2.90;;
25980;SDS011;13772;52.996;9.124;2023-08-24T08:43:06;6.53;;;2.03;;
25980;SDS011;13772;52.996;9.124;2023-08-24T08:45:31;6.93;;;2.50;;
25980;SDS011;13772;52.996;9.124;2023-08-24T08:48:00;6.47;;;1.85;;
25980;SDS011;13772;52.996;9.124;2023-08-24T08:50:26;5.32;;;1.77;;
25980;SDS011;13772;52.996;9.124;2023-08-24T08:52:51;4.28;;;1.85;;
25980;SDS011;13772;52.996;9.124;2023-08-24T08:55:17;6.40;;;2.03;;
25980;SDS011;13772;52.996;9.124;2023-08-24T08:57:43;8.23;;;2.33;;
25980;SDS011;13772;52.996;9.124;2023-08-24T09:00:11;8.13;;;2.25;;
25980;SDS011;13772;52.996;9.124;2023-08-24T09:02:40;6.15;;;1.90;;
25980;SDS011;13772;52.996;9.124;2023-08-24T09:05:07;6.40;;;2.10;;
25980;SDS011;13772;52.996;9.124;2023-08-24T09:07:33;7.75;;;2.70;;
25980;SDS011;13772;52.996;9.124;2023-08-24T09:09:59;6.50;;;2.10;;
25980;SDS011;13772;52.996;9.124;2023-08-24T09:12:24;6.82;;;2.10;;
25980;SDS011;13772;52.996;9.124;2023-08-24T09:14:49;9.50;;;2.50;;
25980;SDS011;13772;52.996;9.124;2023-08-24T09:17:21;4.78;;;2.20;;
25980;SDS011;13772;52.996;9.124;2023-08-24T09:19:47;9.15;;;2.20;;
25980;SDS011;13772;52.996;9.124;2023-08-24T09:22:14;4.53;;;2.08;;
25980;SDS011;13772;52.996;9.124;2023-08-24T09:24:39;4.05;;;1.70;;
25980;SDS011;13772;52.996;9.124;2023-08-24T09:27:15;3.67;;;2.20;;
